createdAt,value
2019-02-21T00:00:24.261Z,81.49
2019-02-21T00:01:21.066Z,81.90
2019-02-21T00:02:19.275Z,82.15
2019-02-21T00:03:19.266Z,81.84
2019-02-21T00:04:19.265Z,81.84
2019-02-21T00:05:19.248Z,81.63
2019-02-21T00:06:19.255Z,81.73
2019-02-21T00:07:19.225Z,82.04
2019-02-21T00:08:19.248Z,81.94
2019-02-21T00:09:19.218Z,81.84
2019-02-21T00:10:19.194Z,81.94
2019-02-21T00:11:19.229Z,81.52
2019-02-21T00:12:19.172Z,81.73
2019-02-21T00:13:19.167Z,81.63
2019-02-21T00:14:19.150Z,81.73
2019-02-21T00:15:19.145Z,81.63
2019-02-21T00:16:19.130Z,81.25
2019-02-21T00:17:19.149Z,81.21
2019-02-21T00:18:19.106Z,81.35
2019-02-21T00:19:19.103Z,81.42
2019-02-21T00:20:19.089Z,81.52
2019-02-21T00:21:19.136Z,81.73
2019-02-21T00:22:19.090Z,81.56
2019-02-21T00:23:19.057Z,81.77
2019-02-21T00:24:19.049Z,81.77
2019-02-21T00:25:19.038Z,81.67
2019-02-21T00:26:19.031Z,81.56
2019-02-21T00:27:19.036Z,81.56
2019-02-21T00:28:19.002Z,81.87
2019-02-21T00:29:19.001Z,81.77
2019-02-21T00:30:18.988Z,81.87
2019-02-21T00:31:18.979Z,81.87
2019-02-21T00:32:19.014Z,81.77
2019-02-21T00:33:18.949Z,81.98
2019-02-21T00:34:18.946Z,81.67
2019-02-21T00:35:18.947Z,81.87
2019-02-21T00:36:18.920Z,81.98
2019-02-21T00:37:18.913Z,82.08
2019-02-21T00:38:18.918Z,82.12
2019-02-21T00:39:18.888Z,81.87
2019-02-21T00:40:18.882Z,81.67
2019-02-21T00:41:18.866Z,81.67
2019-02-21T00:42:18.858Z,81.77
2019-02-21T00:43:18.862Z,81.77
2019-02-21T00:44:18.839Z,81.98
2019-02-21T00:45:18.829Z,81.70
2019-02-21T00:46:18.816Z,81.81
2019-02-21T00:47:18.800Z,81.60
2019-02-21T00:48:18.819Z,81.81
2019-02-21T00:49:18.792Z,82.12
2019-02-21T00:50:18.788Z,81.91
2019-02-21T00:51:18.763Z,82.12
2019-02-21T00:52:18.754Z,82.01
2019-02-21T00:53:18.777Z,82.01
2019-02-21T00:54:18.726Z,82.22
2019-02-21T00:55:18.719Z,81.91
2019-02-21T00:56:18.713Z,82.01
2019-02-21T00:57:18.699Z,81.70
2019-02-21T00:58:18.711Z,81.49
2019-02-21T00:59:18.674Z,81.60
2019-02-21T01:00:18.668Z,81.91
2019-02-21T01:01:20.745Z,81.81
2019-02-21T01:02:18.645Z,81.70
2019-02-21T01:03:18.660Z,81.81
2019-02-21T01:04:18.624Z,81.81
2019-02-21T01:05:18.626Z,81.81
2019-02-21T01:06:18.613Z,81.70
2019-02-21T01:07:18.593Z,82.01
2019-02-21T01:08:18.607Z,82.01
2019-02-21T01:09:18.577Z,81.81
2019-02-21T01:10:18.558Z,81.70
2019-02-21T01:11:18.572Z,81.81
2019-02-21T01:12:18.539Z,81.91
2019-02-21T01:13:18.531Z,82.01
2019-02-21T01:14:18.535Z,82.32
2019-02-21T01:15:18.528Z,82.12
2019-02-21T01:16:18.498Z,82.64
2019-02-21T01:17:18.496Z,82.84
2019-02-21T01:18:18.482Z,82.74
2019-02-21T01:19:18.491Z,82.89
2019-02-21T01:20:18.459Z,83.05
2019-02-21T01:21:18.443Z,82.95
2019-02-21T01:22:18.442Z,83.05
2019-02-21T01:23:18.419Z,83.09
2019-02-21T01:24:18.435Z,83.09
2019-02-21T01:25:18.406Z,83.05
2019-02-21T01:26:18.392Z,83.16
2019-02-21T01:27:18.376Z,83.26
2019-02-21T01:28:18.371Z,83.26
2019-02-21T01:29:18.378Z,83.68
2019-02-21T01:30:18.351Z,83.99
2019-02-21T01:31:18.336Z,84.34
2019-02-21T01:32:18.331Z,83.99
2019-02-21T01:33:18.313Z,83.89
2019-02-21T01:34:18.324Z,84.20
2019-02-21T01:35:18.295Z,83.99
2019-02-21T01:36:18.294Z,83.78
2019-02-21T01:37:18.274Z,84.72
2019-02-21T01:38:18.285Z,84.30
2019-02-21T01:39:18.281Z,84.61
2019-02-21T01:40:18.241Z,84.51
2019-02-21T01:41:18.230Z,84.51
2019-02-21T01:42:18.228Z,84.41
2019-02-21T01:43:18.217Z,85.55
2019-02-21T01:44:18.221Z,85.24
2019-02-21T01:45:18.187Z,84.61
2019-02-21T01:46:18.183Z,84.92
2019-02-21T01:47:18.182Z,84.51
2019-02-21T01:48:18.167Z,85.03
2019-02-21T01:49:18.174Z,85.13
2019-02-21T01:50:18.142Z,85.20
2019-02-21T01:51:18.132Z,84.41
2019-02-21T01:52:18.113Z,84.51
2019-02-21T01:53:18.103Z,85.13
2019-02-21T01:54:18.094Z,84.51
2019-02-21T01:55:18.102Z,85.03
2019-02-21T01:56:18.075Z,85.03
2019-02-21T01:57:18.072Z,84.41
2019-02-21T01:58:18.053Z,85.65
2019-02-21T01:59:18.041Z,84.58
2019-02-21T02:00:18.049Z,84.82
2019-02-21T02:01:18.022Z,85.44
2019-02-21T02:02:18.010Z,85.24
2019-02-21T02:03:18.003Z,85.30
2019-02-21T02:04:17.987Z,85.61
2019-02-21T02:05:17.998Z,85.51
2019-02-21T02:06:17.986Z,85.30
2019-02-21T02:07:17.960Z,85.30
2019-02-21T02:08:17.948Z,85.41
2019-02-21T02:09:17.939Z,85.51
2019-02-21T02:10:17.946Z,85.41
2019-02-21T02:11:17.915Z,85.51
2019-02-21T02:12:17.907Z,85.51
2019-02-21T02:13:24.713Z,85.20
2019-02-21T02:14:18.885Z,85.30
2019-02-21T02:15:17.891Z,85.41
2019-02-21T02:16:17.872Z,85.61
2019-02-21T02:17:17.851Z,85.61
2019-02-21T02:18:17.841Z,85.51
2019-02-21T02:19:17.828Z,85.51
2019-02-21T02:20:17.855Z,85.61
2019-02-21T02:21:17.807Z,86.13
2019-02-21T02:22:17.797Z,86.24
2019-02-21T02:23:17.790Z,86.34
2019-02-21T02:24:17.777Z,87.69
2019-02-21T02:25:17.779Z,86.24
2019-02-21T02:26:17.781Z,87.59
2019-02-21T02:27:17.749Z,87.17
2019-02-21T02:28:17.743Z,86.34
2019-02-21T02:29:17.734Z,86.03
2019-02-21T02:30:17.720Z,86.03
2019-02-21T02:31:22.616Z,85.82
2019-02-21T02:32:18.690Z,85.72
2019-02-21T02:33:17.682Z,85.72
2019-02-21T02:34:17.677Z,85.78
2019-02-21T02:35:17.658Z,88.48
2019-02-21T02:36:17.671Z,88.94
2019-02-21T02:37:17.643Z,88.00
2019-02-21T02:38:17.639Z,86.86
2019-02-21T02:39:17.614Z,86.44
2019-02-21T02:40:17.605Z,87.79
2019-02-21T02:41:17.621Z,87.69
2019-02-21T02:42:17.584Z,88.07
2019-02-21T02:43:17.583Z,87.79
2019-02-21T02:44:17.563Z,88.00
2019-02-21T02:45:17.552Z,88.73
2019-02-21T02:46:17.549Z,88.62
2019-02-21T02:47:17.564Z,88.38
2019-02-21T02:48:17.517Z,87.48
2019-02-21T02:49:17.509Z,87.69
2019-02-21T02:50:17.493Z,87.76
2019-02-21T02:51:17.500Z,87.55
2019-02-21T02:52:17.510Z,87.65
2019-02-21T02:53:17.464Z,87.24
2019-02-21T02:54:17.452Z,87.65
2019-02-21T02:55:17.442Z,86.96
2019-02-21T02:56:17.441Z,86.55
2019-02-21T02:57:17.436Z,86.41
2019-02-21T02:58:17.409Z,86.41
2019-02-21T02:59:17.399Z,86.41
2019-02-21T03:00:17.388Z,86.41
2019-02-21T03:01:17.385Z,86.82
2019-02-21T03:02:17.383Z,86.30
2019-02-21T03:03:17.355Z,86.41
2019-02-21T03:04:17.343Z,86.61
2019-02-21T03:05:17.359Z,86.72
2019-02-21T03:06:17.321Z,86.30
2019-02-21T03:07:17.333Z,86.36
2019-02-21T03:08:17.299Z,86.19
2019-02-21T03:09:17.288Z,86.19
2019-02-21T03:10:17.291Z,86.19
2019-02-21T03:11:17.269Z,86.68
2019-02-21T03:12:17.313Z,87.92
2019-02-21T03:13:17.279Z,87.55
2019-02-21T03:14:17.245Z,86.78
2019-02-21T03:15:17.224Z,86.26
2019-02-21T03:16:17.214Z,86.09
2019-02-21T03:17:17.229Z,86.47
2019-02-21T03:18:17.199Z,86.47
2019-02-21T03:19:17.183Z,86.57
2019-02-21T03:20:17.172Z,86.19
2019-02-21T03:21:17.161Z,86.88
2019-02-21T03:22:17.206Z,87.19
2019-02-21T03:23:17.143Z,86.57
2019-02-21T03:24:17.130Z,87.82
2019-02-21T03:25:17.120Z,87.61
2019-02-21T03:26:17.118Z,87.51
2019-02-21T03:27:17.098Z,86.88
2019-02-21T03:28:17.106Z,86.68
2019-02-21T03:29:17.072Z,86.68
2019-02-21T03:30:17.061Z,86.36
2019-02-21T03:31:17.064Z,86.36
2019-02-21T03:32:17.042Z,87.61
2019-02-21T03:33:17.049Z,86.99
2019-02-21T03:34:17.017Z,86.36
2019-02-21T03:35:17.066Z,87.30
2019-02-21T03:36:16.995Z,87.71
2019-02-21T03:37:16.984Z,87.71
2019-02-21T03:38:16.997Z,87.82
2019-02-21T03:39:16.969Z,86.78
2019-02-21T03:40:16.952Z,87.71
2019-02-21T03:41:16.941Z,87.40
2019-02-21T03:42:16.930Z,87.82
2019-02-21T03:43:16.940Z,88.44
2019-02-21T03:44:16.907Z,88.54
2019-02-21T03:45:16.903Z,88.34
2019-02-21T03:46:16.887Z,88.85
2019-02-21T03:47:16.873Z,89.37
2019-02-21T03:48:16.895Z,90.00
2019-02-21T03:49:16.863Z,90.48
2019-02-21T03:50:16.842Z,90.10
2019-02-21T03:51:16.835Z,89.17
2019-02-21T03:52:16.820Z,89.58
2019-02-21T03:53:16.847Z,88.75
2019-02-21T03:54:16.801Z,88.34
2019-02-21T03:55:16.790Z,87.71
2019-02-21T03:56:16.795Z,87.71
2019-02-21T03:57:16.769Z,87.30
2019-02-21T03:58:16.801Z,86.57
2019-02-21T03:59:16.761Z,87.78
2019-02-21T04:00:16.787Z,88.23
2019-02-21T04:01:16.720Z,87.51
2019-02-21T04:02:16.711Z,86.99
2019-02-21T04:03:16.699Z,86.68
2019-02-21T04:04:16.709Z,86.36
2019-02-21T04:05:16.678Z,86.05
2019-02-21T04:06:16.666Z,86.36
2019-02-21T04:07:16.654Z,86.22
2019-02-21T04:08:16.645Z,86.16
2019-02-21T04:09:16.675Z,85.91
2019-02-21T04:10:16.623Z,86.02
2019-02-21T04:11:16.615Z,86.12
2019-02-21T04:12:16.604Z,86.12
2019-02-21T04:13:16.591Z,86.54
2019-02-21T04:14:16.596Z,87.61
2019-02-21T04:15:16.573Z,88.82
2019-02-21T04:16:16.561Z,88.71
2019-02-21T04:17:16.545Z,88.71
2019-02-21T04:18:16.547Z,90.48
2019-02-21T04:19:16.548Z,90.58
2019-02-21T04:20:16.516Z,89.65
2019-02-21T04:21:16.503Z,89.03
2019-02-21T04:22:16.493Z,87.99
2019-02-21T04:23:16.490Z,88.40
2019-02-21T04:24:16.496Z,88.71
2019-02-21T04:25:16.463Z,87.78
2019-02-21T04:26:16.449Z,87.61
2019-02-21T04:27:16.452Z,87.61
2019-02-21T04:28:16.426Z,87.26
2019-02-21T04:29:16.435Z,87.57
2019-02-21T04:30:16.407Z,87.57
2019-02-21T04:31:16.409Z,87.57
2019-02-21T04:32:17.233Z,87.88
2019-02-21T04:33:16.373Z,87.78
2019-02-21T04:34:16.385Z,87.78
2019-02-21T04:35:16.362Z,87.47
2019-02-21T04:36:16.339Z,87.57
2019-02-21T04:37:16.342Z,87.99
2019-02-21T04:38:16.321Z,88.09
2019-02-21T04:39:16.307Z,87.99
2019-02-21T04:40:16.330Z,87.88
2019-02-21T04:41:16.286Z,87.88
2019-02-21T04:42:16.275Z,89.03
2019-02-21T04:43:16.265Z,88.92
2019-02-21T04:44:16.429Z,88.40
2019-02-21T04:45:16.265Z,88.98
2019-02-21T04:46:16.234Z,89.13
2019-02-21T04:47:16.223Z,89.23
2019-02-21T04:48:16.226Z,88.51
2019-02-21T04:49:16.209Z,88.20
2019-02-21T04:50:16.211Z,87.78
2019-02-21T04:51:16.181Z,87.78
2019-02-21T04:52:16.166Z,88.82
2019-02-21T04:53:16.159Z,88.20
2019-02-21T04:54:16.144Z,87.78
2019-02-21T04:55:16.177Z,87.47
2019-02-21T04:56:16.123Z,87.47
2019-02-21T04:57:16.112Z,87.57
2019-02-21T04:58:16.115Z,87.37
2019-02-21T04:59:16.093Z,87.47
2019-02-21T05:00:16.081Z,87.68
2019-02-21T05:01:16.086Z,87.26
2019-02-21T05:02:16.062Z,87.26
2019-02-21T05:03:16.045Z,86.64
2019-02-21T05:04:16.044Z,86.54
2019-02-21T05:05:16.029Z,86.64
2019-02-21T05:06:16.036Z,86.54
2019-02-21T05:07:16.007Z,86.54
2019-02-21T05:08:15.990Z,86.64
2019-02-21T05:09:15.992Z,86.12
2019-02-21T05:10:15.974Z,86.33
2019-02-21T05:11:15.983Z,86.68
2019-02-21T05:12:15.953Z,86.78
2019-02-21T05:13:15.937Z,87.71
2019-02-21T05:14:15.927Z,87.61
2019-02-21T05:15:15.934Z,87.71
2019-02-21T05:16:15.927Z,87.71
2019-02-21T05:17:15.892Z,87.82
2019-02-21T05:18:15.883Z,87.51
2019-02-21T05:19:15.878Z,87.71
2019-02-21T05:20:15.877Z,87.71
2019-02-21T05:21:15.909Z,87.71
2019-02-21T05:22:15.843Z,87.51
2019-02-21T05:23:15.831Z,87.51
2019-02-21T05:24:15.820Z,87.51
2019-02-21T05:25:15.814Z,87.61
2019-02-21T05:26:15.827Z,87.71
2019-02-21T05:27:15.791Z,86.99
2019-02-21T05:28:15.774Z,86.68
2019-02-21T05:29:15.841Z,86.78
2019-02-21T05:30:15.764Z,86.78
2019-02-21T05:31:15.752Z,86.68
2019-02-21T05:32:15.749Z,86.26
2019-02-21T05:33:15.725Z,86.36
2019-02-21T05:34:15.712Z,86.36
2019-02-21T05:35:15.701Z,86.47
2019-02-21T05:36:15.689Z,86.47
2019-02-21T05:37:15.711Z,86.47
2019-02-21T05:38:15.673Z,86.36
2019-02-21T05:39:15.657Z,86.36
2019-02-21T05:40:15.654Z,86.26
2019-02-21T05:41:15.633Z,86.36
2019-02-21T05:42:15.648Z,86.47
2019-02-21T05:43:15.617Z,86.26
2019-02-21T05:44:15.604Z,86.16
2019-02-21T05:45:15.598Z,86.36
2019-02-21T05:46:15.579Z,86.47
2019-02-21T05:47:15.590Z,86.36
2019-02-21T05:48:15.571Z,86.57
2019-02-21T05:49:15.554Z,86.51
2019-02-21T05:50:15.537Z,86.05
2019-02-21T05:51:15.528Z,86.26
2019-02-21T05:52:15.549Z,86.47
2019-02-21T05:53:15.507Z,86.57
2019-02-21T05:54:15.491Z,86.51
2019-02-21T05:55:15.497Z,86.41
2019-02-21T05:56:15.476Z,86.26
2019-02-21T05:57:15.482Z,86.36
2019-02-21T05:58:15.453Z,86.19
2019-02-21T05:59:15.439Z,85.95
2019-02-21T06:00:15.429Z,86.41
2019-02-21T06:01:15.425Z,86.41
2019-02-21T06:02:15.428Z,86.09
2019-02-21T06:03:15.395Z,86.09
2019-02-21T06:04:15.387Z,85.88
2019-02-21T06:05:15.378Z,85.68
2019-02-21T06:06:17.299Z,85.68
2019-02-21T06:07:15.374Z,85.78
2019-02-21T06:08:15.339Z,86.19
2019-02-21T06:09:15.337Z,86.09
2019-02-21T06:10:15.318Z,86.09
2019-02-21T06:11:17.872Z,85.99
2019-02-21T06:12:15.315Z,85.88
2019-02-21T06:13:15.289Z,85.88
2019-02-21T06:14:15.282Z,86.24
2019-02-21T06:15:18.147Z,85.78
2019-02-21T06:16:15.255Z,85.88
2019-02-21T06:17:15.265Z,85.78
2019-02-21T06:18:17.688Z,85.61
2019-02-21T06:19:15.221Z,85.78
2019-02-21T06:20:17.856Z,85.72
2019-02-21T06:21:15.204Z,85.93
2019-02-21T06:22:15.219Z,86.13
2019-02-21T06:23:15.175Z,86.44
2019-02-21T06:24:15.166Z,86.44
2019-02-21T06:25:15.155Z,86.65
2019-02-21T06:26:15.163Z,86.34
2019-02-21T06:27:15.139Z,86.55
2019-02-21T06:28:15.155Z,86.44
2019-02-21T06:29:15.114Z,86.55
2019-02-21T06:30:15.117Z,86.76
2019-02-21T06:31:15.094Z,86.34
2019-02-21T06:32:15.088Z,86.49
2019-02-21T06:33:15.098Z,86.44
2019-02-21T06:34:15.070Z,86.65
2019-02-21T06:35:15.054Z,86.65
2019-02-21T06:36:15.040Z,86.55
2019-02-21T06:37:15.029Z,86.55
2019-02-21T06:38:15.065Z,86.13
2019-02-21T06:39:15.012Z,86.03
2019-02-21T06:40:14.997Z,86.44
2019-02-21T06:41:15.080Z,86.38
2019-02-21T06:42:14.981Z,86.13
2019-02-21T06:43:14.990Z,86.17
2019-02-21T06:44:14.955Z,86.03
2019-02-21T06:45:17.860Z,85.96
2019-02-21T06:46:14.942Z,86.07
2019-02-21T06:47:14.929Z,86.17
2019-02-21T06:48:14.955Z,86.07
2019-02-21T06:49:14.900Z,85.75
2019-02-21T06:50:14.893Z,85.86
2019-02-21T06:51:14.876Z,85.65
2019-02-21T06:52:15.659Z,85.75
2019-02-21T06:53:14.856Z,85.75
2019-02-21T06:54:14.867Z,85.75
2019-02-21T06:55:14.837Z,85.61
2019-02-21T06:56:14.863Z,85.65
2019-02-21T06:57:14.820Z,85.96
2019-02-21T06:58:14.806Z,85.86
2019-02-21T06:59:14.822Z,85.96
2019-02-21T07:00:14.781Z,85.75
2019-02-21T07:01:25.400Z,85.86
2019-02-21T07:02:15.765Z,85.86
2019-02-21T07:03:16.109Z,85.86
2019-02-21T07:04:14.756Z,85.75
2019-02-21T07:05:14.729Z,85.86
2019-02-21T07:06:14.729Z,86.27
2019-02-21T07:07:14.720Z,86.49
2019-02-21T07:08:14.698Z,86.07
2019-02-21T07:09:14.705Z,86.49
2019-02-21T07:10:14.677Z,86.27
2019-02-21T07:11:14.666Z,86.69
2019-02-21T07:12:14.659Z,87.42
2019-02-21T07:13:25.714Z,86.90
2019-02-21T07:14:15.664Z,86.90
2019-02-21T07:15:15.214Z,87.21
2019-02-21T07:16:14.615Z,87.63
2019-02-21T07:17:14.601Z,87.84
2019-02-21T07:18:14.602Z,86.80
2019-02-21T07:19:14.608Z,87.21
2019-02-21T07:20:14.570Z,87.21
2019-02-21T07:21:14.559Z,87.79
2019-02-21T07:22:18.013Z,87.52
2019-02-21T07:23:15.542Z,87.63
2019-02-21T07:24:14.556Z,87.52
2019-02-21T07:25:14.518Z,87.84
2019-02-21T07:26:14.535Z,87.52
2019-02-21T07:27:14.501Z,87.59
2019-02-21T07:28:15.985Z,87.63
2019-02-21T07:29:14.495Z,87.73
2019-02-21T07:30:20.072Z,87.73
2019-02-21T07:31:15.456Z,87.63
2019-02-21T07:32:14.446Z,88.67
2019-02-21T07:33:14.465Z,88.62
2019-02-21T07:34:14.449Z,88.94
2019-02-21T07:35:14.410Z,88.73
2019-02-21T07:36:14.453Z,89.56
2019-02-21T07:37:18.441Z,89.18
2019-02-21T07:38:17.013Z,89.46
2019-02-21T07:39:19.746Z,91.53
2019-02-21T07:40:20.084Z,92.26
2019-02-21T07:41:18.448Z,93.62
2019-02-21T07:42:14.371Z,94.24
2019-02-21T07:43:14.323Z,95.38
2019-02-21T07:44:14.357Z,95.59
2019-02-21T07:45:14.532Z,95.75
2019-02-21T07:46:14.298Z,96.17
2019-02-21T07:47:14.278Z,96.17
2019-02-21T07:48:14.272Z,96.69
2019-02-21T07:49:14.260Z,96.58
2019-02-21T07:50:14.274Z,96.85
2019-02-21T07:51:14.238Z,96.95
2019-02-21T07:52:14.229Z,96.75
2019-02-21T07:53:14.228Z,97.16
2019-02-21T07:54:14.206Z,97.27
2019-02-21T07:55:14.218Z,97.16
2019-02-21T07:56:14.186Z,97.37
2019-02-21T07:57:14.175Z,97.95
2019-02-21T07:58:14.157Z,97.95
2019-02-21T07:59:14.151Z,97.85
2019-02-21T08:00:14.163Z,97.69
2019-02-21T08:01:14.129Z,97.38
2019-02-21T08:02:14.119Z,97.33
2019-02-21T08:03:14.113Z,97.69
2019-02-21T08:04:14.105Z,96.97
2019-02-21T08:05:14.104Z,96.66
2019-02-21T08:06:14.074Z,96.76
2019-02-21T08:07:14.061Z,96.34
2019-02-21T08:08:14.061Z,96.45
2019-02-21T08:09:14.040Z,95.89
2019-02-21T08:10:14.056Z,96.34
2019-02-21T08:11:14.013Z,96.51
2019-02-21T08:12:14.011Z,96.41
2019-02-21T08:13:13.995Z,96.20
2019-02-21T08:14:16.021Z,96.51
2019-02-21T08:15:13.971Z,95.89
2019-02-21T08:16:13.980Z,95.74
2019-02-21T08:17:16.207Z,95.53
2019-02-21T08:18:13.943Z,95.22
2019-02-21T08:19:13.928Z,95.32
2019-02-21T08:20:13.915Z,95.64
2019-02-21T08:21:13.937Z,95.59
2019-02-21T08:22:13.900Z,95.70
2019-02-21T08:23:13.888Z,95.18
2019-02-21T08:24:13.875Z,95.07
2019-02-21T08:25:13.861Z,95.28
2019-02-21T08:26:13.880Z,95.24
2019-02-21T08:27:13.841Z,95.54
2019-02-21T08:28:13.831Z,94.93
2019-02-21T08:29:13.824Z,93.95
2019-02-21T08:30:13.824Z,93.95
2019-02-21T08:31:13.829Z,94.06
2019-02-21T08:32:13.845Z,93.95
2019-02-21T08:33:13.783Z,93.49
2019-02-21T08:34:13.772Z,93.23
2019-02-21T08:35:13.760Z,93.60
2019-02-21T08:36:13.773Z,93.70
2019-02-21T08:37:13.743Z,93.18
2019-02-21T08:38:13.738Z,92.72
2019-02-21T08:39:13.717Z,93.80
2019-02-21T08:40:13.758Z,93.76
2019-02-21T08:41:14.603Z,94.38
2019-02-21T08:42:13.688Z,93.97
2019-02-21T08:43:13.677Z,93.35
2019-02-21T08:44:13.667Z,93.93
2019-02-21T08:45:13.656Z,93.76
2019-02-21T08:46:13.663Z,93.93
2019-02-21T08:47:13.634Z,93.72
2019-02-21T08:48:13.698Z,93.82
2019-02-21T08:49:13.616Z,93.10
2019-02-21T08:50:13.616Z,93.37
2019-02-21T08:51:13.623Z,92.17
2019-02-21T08:52:13.584Z,92.44
2019-02-21T08:53:13.573Z,92.23
2019-02-21T08:54:13.578Z,92.54
2019-02-21T08:55:13.545Z,93.57
2019-02-21T08:56:13.542Z,92.85
2019-02-21T08:57:13.554Z,93.84
2019-02-21T08:58:13.513Z,93.12
2019-02-21T08:59:13.515Z,92.74
2019-02-21T09:00:13.496Z,91.98
2019-02-21T09:01:13.483Z,92.40
2019-02-21T09:02:13.493Z,92.91
2019-02-21T09:03:13.482Z,92.08
2019-02-21T09:04:26.365Z,91.98
2019-02-21T09:05:14.449Z,91.77
2019-02-21T09:06:13.444Z,91.77
2019-02-21T09:07:13.450Z,92.25
2019-02-21T09:08:13.411Z,91.73
2019-02-21T09:09:13.398Z,91.83
2019-02-21T09:10:13.388Z,91.32
2019-02-21T09:11:13.387Z,91.63
2019-02-21T09:12:13.394Z,91.89
2019-02-21T09:13:13.363Z,91.69
2019-02-21T09:14:13.387Z,91.79
2019-02-21T09:15:13.335Z,91.89
2019-02-21T09:16:13.324Z,91.58
2019-02-21T09:17:13.346Z,91.07
2019-02-21T09:18:13.302Z,91.28
2019-02-21T09:19:13.298Z,91.69
2019-02-21T09:20:13.282Z,91.75
2019-02-21T09:21:13.283Z,91.13
2019-02-21T09:22:13.287Z,91.13
2019-02-21T09:23:15.791Z,91.19
2019-02-21T09:24:15.268Z,91.24
2019-02-21T09:25:14.238Z,90.67
2019-02-21T09:26:13.240Z,91.13
2019-02-21T09:27:13.241Z,92.02
2019-02-21T09:28:15.703Z,90.67
2019-02-21T09:29:13.201Z,90.37
2019-02-21T09:30:13.189Z,90.37
2019-02-21T09:31:13.202Z,90.16
2019-02-21T09:32:13.225Z,90.06
2019-02-21T09:33:17.517Z,89.71
2019-02-21T09:34:21.231Z,90.12
2019-02-21T09:35:14.190Z,90.84
2019-02-21T09:36:13.204Z,90.73
2019-02-21T09:37:13.195Z,90.84
2019-02-21T09:38:13.095Z,91.15
2019-02-21T09:39:13.083Z,91.31
2019-02-21T09:40:13.076Z,90.59
2019-02-21T09:41:13.066Z,91.11
2019-02-21T09:42:13.047Z,91.21
2019-02-21T09:43:13.067Z,90.59
2019-02-21T09:44:13.028Z,90.80
2019-02-21T09:45:14.946Z,90.90
2019-02-21T09:46:13.016Z,92.03
2019-02-21T09:47:12.999Z,91.68
2019-02-21T09:48:13.004Z,90.86
2019-02-21T09:49:12.972Z,91.78
2019-02-21T09:50:12.971Z,90.75
2019-02-21T09:51:12.950Z,89.94
2019-02-21T09:52:12.995Z,89.58
2019-02-21T09:53:12.954Z,89.58
2019-02-21T09:54:12.932Z,89.58
2019-02-21T09:55:12.912Z,90.20
2019-02-21T09:56:12.899Z,89.89
2019-02-21T09:57:13.742Z,89.48
2019-02-21T09:58:12.908Z,89.48
2019-02-21T09:59:12.873Z,89.07
2019-02-21T10:00:12.862Z,88.66
2019-02-21T10:01:12.844Z,88.66
2019-02-21T10:02:12.837Z,88.86
2019-02-21T10:03:12.910Z,89.58
2019-02-21T10:04:12.837Z,90.26
2019-02-21T10:05:12.805Z,90.57
2019-02-21T10:06:12.793Z,90.36
2019-02-21T10:07:12.784Z,90.63
2019-02-21T10:08:12.791Z,89.91
2019-02-21T10:09:12.787Z,90.32
2019-02-21T10:10:12.746Z,89.81
2019-02-21T10:11:12.741Z,89.46
2019-02-21T10:12:12.744Z,90.08
2019-02-21T10:13:13.394Z,88.74
2019-02-21T10:14:12.728Z,87.37
2019-02-21T10:15:12.694Z,87.46
2019-02-21T10:16:12.691Z,86.95
2019-02-21T10:17:12.698Z,86.71
2019-02-21T10:18:12.663Z,84.76
2019-02-21T10:19:12.652Z,85.17
2019-02-21T10:20:12.669Z,84.66
2019-02-21T10:21:12.638Z,84.66
2019-02-21T10:22:12.628Z,84.82
2019-02-21T10:23:12.610Z,84.72
2019-02-21T10:24:12.599Z,84.76
2019-02-21T10:25:12.608Z,84.66
2019-02-21T10:26:12.602Z,84.20
2019-02-21T10:27:12.565Z,84.41
2019-02-21T10:28:12.555Z,84.82
2019-02-21T10:29:12.544Z,84.92
2019-02-21T10:30:13.402Z,83.69
2019-02-21T10:31:12.523Z,83.80
2019-02-21T10:32:12.510Z,84.06
2019-02-21T10:33:12.503Z,84.72
2019-02-21T10:34:12.490Z,84.68
2019-02-21T10:35:12.499Z,84.99
2019-02-21T10:36:12.473Z,84.37
2019-02-21T10:37:12.464Z,82.93
2019-02-21T10:38:12.453Z,82.63
2019-02-21T10:39:12.484Z,83.10
2019-02-21T10:40:12.454Z,83.61
2019-02-21T10:41:12.423Z,83.51
2019-02-21T10:42:12.402Z,82.90
2019-02-21T10:43:12.389Z,82.90
2019-02-21T10:44:19.924Z,82.08
2019-02-21T10:45:12.409Z,82.90
2019-02-21T10:46:12.364Z,82.59
2019-02-21T10:47:12.364Z,83.31
2019-02-21T10:48:12.348Z,82.86
2019-02-21T10:49:19.476Z,82.59
2019-02-21T10:50:14.077Z,83.20
2019-02-21T10:51:12.318Z,83.00
2019-02-21T10:52:12.343Z,83.51
2019-02-21T10:53:12.296Z,82.59
2019-02-21T10:54:19.811Z,82.90
2019-02-21T10:55:12.316Z,82.79
2019-02-21T10:56:12.251Z,83.10
2019-02-21T10:57:19.779Z,82.90
2019-02-21T10:58:12.253Z,83.88
2019-02-21T10:59:19.783Z,83.47
2019-02-21T11:00:12.323Z,84.19
2019-02-21T11:01:19.756Z,84.29
2019-02-21T11:02:12.218Z,84.29
2019-02-21T11:03:12.178Z,82.96
2019-02-21T11:04:12.165Z,83.54
2019-02-21T11:05:12.155Z,82.76
2019-02-21T11:06:12.183Z,82.92
2019-02-21T11:07:12.159Z,83.54
2019-02-21T11:08:12.121Z,83.13
2019-02-21T11:09:12.113Z,84.11
2019-02-21T11:10:19.663Z,84.01
2019-02-21T11:11:12.197Z,83.50
2019-02-21T11:12:12.085Z,82.84
2019-02-21T11:13:12.104Z,81.58
2019-02-21T11:14:12.058Z,81.58
2019-02-21T11:15:12.088Z,82.60
2019-02-21T11:16:12.061Z,81.48
2019-02-21T11:17:12.023Z,81.85
2019-02-21T11:18:12.022Z,81.44
2019-02-21T11:19:12.027Z,80.89
2019-02-21T11:20:12.020Z,80.96
2019-02-21T11:21:12.040Z,79.93
2019-02-21T11:22:13.446Z,79.63
2019-02-21T11:23:11.973Z,78.81
2019-02-21T11:24:11.949Z,78.09
2019-02-21T11:25:11.969Z,78.37
2019-02-21T11:26:11.935Z,78.16
2019-02-21T11:27:11.929Z,78.47
2019-02-21T11:28:11.906Z,78.77
2019-02-21T11:29:11.899Z,77.62
2019-02-21T11:30:11.919Z,77.92
2019-02-21T11:31:11.887Z,76.70
2019-02-21T11:32:11.865Z,76.87
2019-02-21T11:33:11.858Z,75.44
2019-02-21T11:34:11.841Z,74.73
2019-02-21T11:35:11.840Z,75.64
2019-02-21T11:36:11.841Z,74.73
2019-02-21T11:37:11.833Z,75.34
2019-02-21T11:38:11.799Z,76.05
2019-02-21T11:39:11.788Z,75.64
2019-02-21T11:40:11.790Z,75.95
2019-02-21T11:41:11.793Z,76.35
2019-02-21T11:42:11.757Z,76.15
2019-02-21T11:43:11.746Z,76.05
2019-02-21T11:44:11.744Z,76.87
2019-02-21T11:45:11.728Z,75.92
2019-02-21T11:46:11.738Z,74.90
2019-02-21T11:47:11.705Z,74.99
2019-02-21T11:48:11.691Z,75.60
2019-02-21T11:49:11.693Z,74.99
2019-02-21T11:50:11.671Z,74.90
2019-02-21T11:51:11.685Z,74.28
2019-02-21T11:52:11.651Z,74.28
2019-02-21T11:53:11.653Z,73.67
2019-02-21T11:54:11.629Z,74.69
2019-02-21T11:55:11.623Z,74.65
2019-02-21T11:56:11.631Z,73.54
2019-02-21T11:57:11.598Z,74.04
2019-02-21T11:58:11.595Z,74.65
2019-02-21T11:59:11.577Z,74.35
2019-02-21T12:00:11.563Z,74.82
2019-02-21T12:01:11.577Z,74.52
2019-02-21T12:02:11.551Z,73.50
2019-02-21T12:03:11.532Z,72.99
2019-02-21T12:04:11.523Z,73.71
2019-02-21T12:05:17.628Z,73.40
2019-02-21T12:06:13.468Z,73.57
2019-02-21T12:07:11.494Z,73.77
2019-02-21T12:08:11.488Z,74.11
2019-02-21T12:09:11.467Z,72.75
2019-02-21T12:10:11.457Z,73.10
2019-02-21T12:11:11.467Z,72.75
2019-02-21T12:12:11.437Z,73.60
2019-02-21T12:13:11.425Z,73.47
2019-02-21T12:14:11.428Z,73.97
2019-02-21T12:15:11.401Z,74.89
2019-02-21T12:16:11.417Z,74.15
2019-02-21T12:17:11.411Z,72.62
2019-02-21T12:18:11.373Z,72.62
2019-02-21T12:19:11.373Z,73.02
2019-02-21T12:20:11.362Z,72.89
2019-02-21T12:21:11.358Z,71.97
2019-02-21T12:22:11.330Z,71.57
2019-02-21T12:23:11.327Z,72.82
2019-02-21T12:24:11.308Z,72.78
2019-02-21T12:25:11.301Z,71.47
2019-02-21T12:26:11.318Z,71.47
2019-02-21T12:27:11.273Z,71.06
2019-02-21T12:28:11.271Z,71.36
2019-02-21T12:29:11.253Z,70.75
2019-02-21T12:30:11.245Z,71.67
2019-02-21T12:31:11.253Z,71.26
2019-02-21T12:32:11.233Z,71.60
2019-02-21T12:33:11.210Z,71.50
2019-02-21T12:34:11.196Z,71.30
2019-02-21T12:35:11.186Z,71.80
2019-02-21T12:36:11.204Z,71.84
2019-02-21T12:37:11.184Z,71.73
2019-02-21T12:38:11.156Z,71.84
2019-02-21T12:39:11.148Z,72.69
2019-02-21T12:40:11.136Z,73.50
2019-02-21T12:41:11.145Z,73.10
2019-02-21T12:42:11.133Z,74.11
2019-02-21T12:43:11.107Z,73.84
2019-02-21T12:44:11.091Z,74.62
2019-02-21T12:45:11.088Z,74.76
2019-02-21T12:46:11.917Z,74.25
2019-02-21T12:47:11.060Z,74.55
2019-02-21T12:48:11.049Z,74.76
2019-02-21T12:49:11.037Z,74.82
2019-02-21T12:50:11.047Z,74.62
2019-02-21T12:51:11.037Z,74.55
2019-02-21T12:52:11.006Z,73.94